Tiempo atmosférico en la estación meteorológica de Campos, Can Sion, Illes Balears (40 m.)



Fecha
DESCASC
Temp. máxima en grados centígrados (hora)
DESCASC
Temp. mínima en grados centígrados (hora)
DESCASC
Temp. media en grados centígrados
DESCASC
Racha de viento máxima en m/sg (hora)
DESCASC
Velocidad máxima media en intervalos de 10 minutos(hora)
DESCASC
Precipitaciones diarias en mm
DESCASC
Precipitaciones de 00:00 a 06:00 en mm
DESCASC
Precipitaciones de 06:00 a 12:00 en mm
DESCASC
Precipitaciones de 12:00 a 18:00 en mm
DESCASC
Precipitaciones de 18:00 a 24:00 en mm
DESCASC
05-04-2020 20.3 (14:40) 2.6 (07:20) 11.4 6.94 (15:20) 3.61 (15:20) 0 0 0 0 0
04-04-2020 20.4 (14:50) 2.4 (07:30) 11.4 9.72 (13:30) 3.06 (14:20) 0 0 0 0 0
03-04-2020 18.4 (15:10) 5.9 (23:50) 12.1 11.39 (11:40) 6.11 (10:20) 4.8 4.8 0 0 0
02-04-2020 17.7 (12:10) 10.7 (00:00) 14.2 10.28 (13:50) 3.61 (13:50) 49.4 0.6 0 46.2 2.6
01-04-2020 20.3 (12:40) 14.2 (00:00) 17.2 10.28 (01:20) 5.56 (01:10) 0 0 0 0 0
31-03-2020 18.1 (14:10) 10.3 (00:00) 14.2 14.17 (11:10) 7.5 (11:40) 0.6 0 0 0.6 0
30-03-2020 19 (14:50) 5.4 (00:00) 12.2 7.5 (15:00) 4.72 (14:20) 0 0 0 0 0
29-03-2020 20.7 (15:40) 4.7 (00:00) 12.7 8.61 (16:00) 5.28 (15:50) 0.2 0.2 0 0 0
28-03-2020 18.1 (13:00) 2.6 (00:00) 10.4 6.67 (13:20) 3.06 (11:20) 8.2 0 0 8.2 0
27-03-2020 17.7 (15:20) 0.8 (00:00) 9.3 6.67 (12:20) 3.06 (12:20) 0.4 0.4 0 0 0
26-03-2020 11 (09:40) 2.1 (00:00) 6.5 6.94 (13:50) 4.72 (12:00) 12 0 4.2 2.4 5.4
25-03-2020 16.1 (13:00) 1.2 (00:00) 8.7 9.17 (15:00) 4.17 (14:00) 0 0 0 0 0
24-03-2020 15.9 (12:30) 9.5 (00:00) 12.7 13.61 (17:10) 7.22 (17:10) 7.2 3.8 3.4 0 0
23-03-2020 20.2 (14:10) 6.8 (00:00) 13.5 8.61 (14:10) 5 (11:30) 0 0 0 0 0
22-03-2020 19.9 (17:30) 8.6 (22:50) 14.3 7.78 (11:40) 4.44 (12:00) 0.6 0 0.6 0 0
21-03-2020 19.2 (12:00) 10.3 (00:00) 14.8 9.72 (12:20) 5.83 (11:50) 0 0 0 0 0
20-03-2020 19.1 (14:10) 6.9 (00:00) 13 12.22 (12:10) 6.11 (12:10) 0 0 0 0 0
19-03-2020 19.5 (14:40) 7.6 (00:00) 13.5 8.61 (13:50) 5 (13:50) 0 0 0 0 0
18-03-2020 19.6 (13:00) 10.6 (00:00) 15.1 8.33 (13:20) 4.72 (13:20) 0 0 0 0 0
17-03-2020 18.1 (14:10) 13.9 (00:00) 16 11.67 (16:30) 6.67 (16:20) 0.2 0.2 0 0 0
16-03-2020 18.6 (14:10) 6.2 (00:00) 12.4 12.78 (13:00) 7.5 (13:00) 1.6 0 1.6 0 0
15-03-2020 19.3 (13:20) 3.7 (00:00) 11.5 8.33 (14:30) 4.44 (18:10) 0 0 0 0 0
14-03-2020 21.5 (14:20) 6.3 (00:00) 13.9 6.67 (14:20) 3.61 (17:30) 0.6 0.6 0 0 0
13-03-2020 22 (15:10) 6.6 (00:00) 14.3 9.44 (11:00) 5.28 (15:50) 0 0 0 0 0
12-03-2020 24 (13:50) 4.8 (00:00) 14.4 5.28 (12:40) 3.06 (13:00) 0.2 0 0.2 0 0
11-03-2020 19.9 (12:00) 5 (00:00) 12.4 6.94 (13:20) 4.17 (16:50) 0 0 0 0 0
10-03-2020 18 (12:20) 2.5 (00:00) 10.3 9.17 (13:20) 5.56 (16:00) 0 0 0 0 0
09-03-2020 19.2 (13:00) 3.7 (00:00) 11.5 8.89 (10:50) 4.44 (10:50) 0 0 0 0 0
08-03-2020 19.5 (15:10) 3.9 (00:00) 11.7 9.17 (14:10) 5.83 (16:00) 0 0 0 0 0

Gráficas

Temp. máximas Temp. mínimas Temp. medias Precipitaciones Rachas de viento máximas Velocidades máximas media en intervalos de 10 minutos

Datos horarios

Fecha y hora oficial Temperatura (ºC) Velocidad del viento (km/h) Dirección del viento Racha (km/h) Dirección de racha Precipitación (mm) Presión (hPa) Tendencia (hPa) Humedad (%)
2020-04-06 23:00:00 8.7 3 Este 5 Este 0 -- -- 92
2020-04-06 22:00:00 9.6 3 Este 4 Este 0 -- -- 88
2020-04-06 21:00:00 11.9 2 Norte 8 Sudeste 0 -- -- 77
2020-04-06 20:00:00 15.2 3 Sudeste 20 Sudeste 0 -- -- 64
2020-04-06 19:00:00 17.9 9 Sudeste 19 Sudeste 0 -- -- 49
2020-04-06 18:00:00 19.2 10 Sudeste 21 Sudeste 0 -- -- 39
2020-04-06 17:00:00 20.1 7 Sur 19 Sudeste 0 -- -- 38
2020-04-06 16:00:00 20.2 9 Sudeste 25 Sur 0 -- -- 35
2020-04-06 15:00:00 20.4 9 Sudeste 26 Este 0 -- -- 39
2020-04-06 14:00:00 20.3 9 Sudeste 21 Sudeste 0 -- -- 40
2020-04-06 13:00:00 19.7 9 Sudeste 19 Sudeste 0 -- -- 41
2020-04-06 12:00:00 19.5 8 Sudeste 21 Sudeste 0 -- -- 48
2020-04-06 11:00:00 18.1 9 Sudeste 22 Este 0 -- -- 60
2020-04-06 10:00:00 15.9 9 Este 15 Este 0 -- -- 81
2020-04-06 09:00:00 11.3 3 Nordeste 9 Nordeste 0 -- -- 100
2020-04-06 08:00:00 6.3 3 Nordeste 7 Este 0 -- -- 99
2020-04-06 07:00:00 5.9 3 Este 6 Este 0 -- -- 99
2020-04-06 06:00:00 6.5 0 Calma 7 Nordeste 0 -- -- 97
2020-04-06 05:00:00 6.7 3 Este 4 Este 0 -- -- 97
2020-04-06 04:00:00 8.6 2 Este 7 Este 0 -- -- 97
2020-04-06 03:00:00 8 3 Nordeste 5 Nordeste 0 -- -- 98
2020-04-06 02:00:00 7.2 0 Calma 5 Este 0 -- -- 96
2020-04-06 01:00:00 7.7 2 Este 5 Este 0 -- -- 95
2020-04-06 00:00:00 8.6 4 Este 5 Este 0 -- -- 94
2020-04-05 23:00:00 9.3 0 Calma 3 Norte 0 -- -- 93
2020-04-05 22:00:00 10.1 2 Nordeste 4 Nordeste 0 -- -- 87
2020-04-05 21:00:00 12.1 2 Nordeste 6 Este 0 -- -- 79
2020-04-05 20:00:00 15.2 3 Este 14 Este 0 -- -- 65
2020-04-05 19:00:00 16.1 8 Este 18 Este 0 -- -- 60
2020-04-05 18:00:00 17.4 10 Este 19 Sudeste 0 -- -- 43
2020-04-05 17:00:00 19.5 12 Sudeste 24 Este 0 -- -- 41
2020-04-05 16:00:00 19.9 11 Sudeste 25 Sudeste 0 -- -- 42
2020-04-05 15:00:00 20.3 12 Este 24 Este 0 -- -- 40
2020-04-05 14:00:00 20 10 Sudeste 23 Sudeste 0 -- -- 44
2020-04-05 13:00:00 19.3 7 Sudeste 19 Este 0 -- -- 34
2020-04-05 12:00:00 18.7 10 Este 18 Este 0 -- -- 57
2020-04-05 11:00:00 17.1 9 Este 21 Este 0 -- -- 66
2020-04-05 10:00:00 13.6 3 Noroeste 7 Noroeste 0 -- -- 96
2020-04-05 09:00:00 8.3 2 Nordeste 4 Norte 0 -- -- 100
2020-04-05 08:00:00 4.1 2 Este 4 Nordeste 0 -- -- 100
2020-04-05 07:00:00 2.9 3 Nordeste 5 Nordeste 0 -- -- 98
2020-04-05 06:00:00 3.6 4 Nordeste 5 Nordeste 0 -- -- 98
2020-04-05 05:00:00 3.4 3 Este 5 Este 0 -- -- 97
2020-04-05 04:00:00 3.9 3 Este 4 Nordeste 0 -- -- 97
2020-04-05 03:00:00 4.5 3 Este 6 Este 0 -- -- 97
2020-04-05 02:00:00 4.5 2 Norte 4 Norte 0 -- -- 96
2020-04-05 01:00:00 5.4 2 Este 5 Este 0 -- -- 95
2020-04-05 00:00:00 6.3 3 Nordeste 4 Este 0 -- -- 94
2020-04-04 23:00:00 7.8 2 Este 5 Este 0 -- -- 94
2020-04-04 22:00:00 8.6 3 Este 5 Este 0 -- -- 90
2020-04-04 21:00:00 11.3 2 Sur 5 Sur 0 -- -- 79
2020-04-04 20:00:00 15.5 3 Sudeste 12 Este 0 -- -- 65
2020-04-04 19:00:00 17.7 7 Sudeste 15 Este 0 -- -- 57
2020-04-04 18:00:00 18.1 7 Sudeste 18 Sudeste 0 -- -- 57
2020-04-04 17:00:00 17.5 7 Sudeste 20 Sudeste 0 -- -- 62
2020-04-04 16:00:00 19 10 Sudeste 22 Este 0 -- -- 57
2020-04-04 15:00:00 20.1 11 Sudeste 22 Este 0 -- -- 52
2020-04-04 14:00:00 20.1 10 Sudeste 35 Oeste 0 -- -- 52
2020-04-04 13:00:00 18.4 6 Este 13 Norte 0 -- -- 49
2020-04-04 12:00:00 18.8 5 Nordeste 14 Nordeste 0 -- -- 47
2020-04-04 11:00:00 17.2 2 Norte 7 Oeste 0 -- -- 71
2020-04-04 10:00:00 14.3 2 Noroeste 4 Noroeste 0 -- -- 87
2020-04-04 09:00:00 9.4 0 Calma 5 Este 0 -- -- 100
2020-04-04 08:00:00 3 3 Este 5 Este 0 -- -- 100
2020-04-04 07:00:00 2.6 2 Este 5 Este 0 -- -- 98
2020-04-04 06:00:00 3.3 3 Nordeste 4 Este 0 -- -- 98
2020-04-04 05:00:00 3.6 2 Nordeste 5 Este 0 -- -- 98
2020-04-04 04:00:00 4.1 4 Este 8 Este 0 -- -- 98
2020-04-04 03:00:00 3.8 0 Calma 4 Este 0 -- -- 97
2020-04-04 02:00:00 4.5 3 Este 5 Este 0 -- -- 96
2020-04-04 01:00:00 5.1 0 Calma 5 Este 0 -- -- 95
2020-04-04 00:00:00 5.9 4 Este 5 Este 0 -- -- 95
2020-04-03 23:00:00 6.8 0 Calma 4 Nordeste 0 -- -- 92
2020-04-03 22:00:00 8.5 4 Este 6 Este 0 -- -- 90
2020-04-03 21:00:00 10.9 0 Calma 10 Nordeste 0 -- -- 79
2020-04-03 20:00:00 13.8 4 Norte 17 Norte 0 -- -- 68
2020-04-03 19:00:00 16.3 10 Norte 23 Norte 0 -- -- 57
2020-04-03 18:00:00 17.9 10 Norte 22 Norte 0 -- -- 59
2020-04-03 17:00:00 17.9 11 Norte 31 Norte 0 -- -- 66
2020-04-03 16:00:00 17.9 14 Norte 32 Norte 0 -- -- 64
2020-04-03 15:00:00 17.9 17 Norte 34 Nordeste 0 -- -- 64
2020-04-03 14:00:00 17.7 17 Norte 39 Norte 0 -- -- 67
2020-04-03 13:00:00 16.3 15 Norte 39 Nordeste 0 -- -- 97
2020-04-03 12:00:00 15.4 18 Nordeste 41 Norte 0 -- -- 99
2020-04-03 11:00:00 13.9 18 Nordeste 40 Norte 0 -- -- 100
2020-04-03 10:00:00 13.8 15 Nordeste 38 Norte 0 -- -- 100
2020-04-03 09:00:00 11.6 14 Norte 35 Nordeste 0 -- -- 100
2020-04-03 08:00:00 11.2 10 Nordeste 28 Norte 0 -- -- 100
2020-04-03 07:00:00 11.2 10 Nordeste 29 Norte 0 -- -- 100
2020-04-03 06:00:00 11 9 Norte 33 Nordeste 0 -- -- 100
2020-04-03 05:00:00 11.3 9 Norte 28 Nordeste 1.6 -- -- 100
2020-04-03 04:00:00 11.6 9 Nordeste 23 Nordeste 3 -- -- 100
2020-04-03 03:00:00 11 6 Noroeste 13 Norte 0.2 -- -- 100
2020-04-03 02:00:00 11 4 Norte 17 Norte 0 -- -- 100
2020-04-03 01:00:00 11.3 8 Norte 19 Nordeste 0 -- -- 100
2020-04-03 00:00:00 11.7 9 Norte 23 Norte 0 -- -- 100
2020-04-02 23:00:00 11.8 5 Nordeste 14 Norte 1.2 -- -- 100
2020-04-02 22:00:00 10.7 0 Calma 4 Noroeste 0 -- -- 100
2020-04-02 21:00:00 11.1 0 Calma 5 Norte 0 -- -- 100
2020-04-02 20:00:00 11.5 4 Norte 11 Nordeste 0.2 -- -- 100
2020-04-02 19:00:00 11.6 5 Nordeste 18 Nordeste 1.2 -- -- 100
2020-04-02 18:00:00 11.3 8 Nordeste 19 Nordeste 5.2 -- -- 100
2020-04-02 17:00:00 13.3 9 Norte 24 Nordeste 4.2 -- -- 99
2020-04-02 16:00:00 13.4 2 Nordeste 7 Norte 0.6 -- -- 100
2020-04-02 15:00:00 11.6 3 Nordeste 9 Oeste 8.2 -- -- 100
2020-04-02 14:00:00 11.2 4 Noroeste 37 Este 28 -- -- 93
2020-04-02 13:00:00 17.6 4 Este 13 Sudoeste 0 -- -- 68
2020-04-02 12:00:00 17.6 8 Oeste 16 Oeste 0 -- -- 67
2020-04-02 11:00:00 16 4 Sudoeste 13 Oeste 0 -- -- 81
2020-04-02 10:00:00 16.6 4 Noroeste 9 Oeste 0 -- -- 90
2020-04-02 09:00:00 14.5 0 Calma 6 Sudeste 0 -- -- 99
2020-04-02 08:00:00 11.2 5 Este 7 Este 0 -- -- 99
2020-04-02 07:00:00 12.1 2 Sudeste 6 Sudeste 0 -- -- 98
2020-04-02 06:00:00 12.1 2 Sudeste 5 Sur 0.2 -- -- 98
2020-04-02 05:00:00 11.8 2 Sudeste 5 Este 0.4 -- -- 97
2020-04-02 04:00:00 11.6 3 Este 6 Sur 0 -- -- 96
2020-04-02 03:00:00 13.2 3 Sur 10 Sur 0 -- -- 96
2020-04-02 02:00:00 13.4 4 Sur 10 Sudoeste 0 -- -- 95
2020-04-02 01:00:00 13.9 4 Sur 8 Sur 0 -- -- 95
2020-04-02 00:00:00 14.2 3 Sur 8 Sur 0 -- -- 94
2020-04-01 23:00:00 15 5 Sudoeste 14 Sudoeste 0 -- -- 92
2020-04-01 22:00:00 15 5 Sur 11 Sur 0 -- -- 92
2020-04-01 21:00:00 15 5 Sudoeste 15 Sudoeste 0 -- -- 89
2020-04-01 20:00:00 15.7 9 Sudoeste 18 Sudoeste 0 -- -- 85
2020-04-01 19:00:00 16.4 12 Sudoeste 24 Oeste 0 -- -- 82
2020-04-01 18:00:00 18.3 13 Sudoeste 27 Sudoeste 0 -- -- 72
2020-04-01 17:00:00 19.2 14 Sudoeste 29 Oeste 0 -- -- 67
2020-04-01 16:00:00 19.4 16 Sudoeste 29 Sudoeste 0 -- -- 71
2020-04-01 15:00:00 19.5 16 Sudoeste 27 Oeste 0 -- -- 71
2020-04-01 14:00:00 19.2 15 Sudoeste 30 Sudoeste 0 -- -- 73
2020-04-01 13:00:00 20.2 9 Sur 19 Sudeste 0 -- -- 69
2020-04-01 12:00:00 18.6 9 Sudeste 19 Sudeste 0 -- -- 76
2020-04-01 11:00:00 18 10 Sudeste 19 Este 0 -- -- 80
2020-04-01 10:00:00 16.3 9 Este 22 Este 0 -- -- 90
2020-04-01 09:00:00 15.3 11 Este 27 Este 0 -- -- 92
2020-04-01 08:00:00 14.4 10 Este 24 Este 0 -- -- 95
2020-04-01 07:00:00 14.5 9 Este 23 Este 0 -- -- 93
2020-04-01 06:00:00 14.6 12 Este 21 Este 0 -- -- 91
2020-04-01 05:00:00 14.4 8 Este 26 Este 0 -- -- 91
2020-04-01 04:00:00 14.5 13 Este 32 Este 0 -- -- 91
2020-04-01 03:00:00 14.6 16 Este 36 Este 0 -- -- 91
2020-04-01 02:00:00 14.6 18 Este 37 Este 0 -- -- 93
2020-04-01 01:00:00 14.3 17 Este 35 Este 0 -- -- 94
2020-04-01 00:00:00 14.5 20 Este 34 Este 0 -- -- 94
2020-03-31 23:00:00 14.7 19 Este 36 Este 0 -- -- 93
2020-03-31 22:00:00 14.6 21 Este 42 Este 0 -- -- 93
2020-03-31 21:00:00 14.4 18 Este 35 Este 0 -- -- 92
2020-03-31 20:00:00 15.3 13 Este 30 Este 0 -- -- 88
2020-03-31 19:00:00 16.7 17 Este 29 Este 0 -- -- 84
2020-03-31 18:00:00 17.6 18 Este 30 Este 0 -- -- 82
2020-03-31 17:00:00 17.7 17 Este 32 Este 0.2 -- -- 85
2020-03-31 16:00:00 15.8 11 Este 32 Este 0.4 -- -- 89
2020-03-31 15:00:00 16.7 13 Este 35 Este 0 -- -- 83
2020-03-31 14:00:00 17.6 21 Este 45 Este 0 -- -- 76
2020-03-31 13:00:00 17.1 23 Este 43 Este 0 -- -- 79
2020-03-31 12:00:00 15.9 24 Este 51 Este 0 -- -- 83
2020-03-31 11:00:00 15.8 26 Este 45 Nordeste 0 -- -- 83
2020-03-31 10:00:00 15.4 20 Este 42 Este 0 -- -- 83
2020-03-31 09:00:00 15.1 19 Este 40 Este 0 -- -- 84
2020-03-31 08:00:00 13.8 15 Este 32 Este 0 -- -- 89
2020-03-31 07:00:00 13.4 14 Este 26 Este 0 -- -- 90
2020-03-31 06:00:00 13.4 12 Nordeste 28 Nordeste 0 -- -- 91
2020-03-31 05:00:00 13.2 9 Nordeste 18 Este 0 -- -- 94
2020-03-31 04:00:00 12.9 6 Nordeste 15 Este 0 -- -- 96
2020-03-31 03:00:00 12 5 Nordeste 9 Nordeste 0 -- -- 97
2020-03-31 02:00:00 12.1 2 Este 12 Este 0 -- -- 96
2020-03-31 01:00:00 10.3 3 Nordeste 6 Este 0 -- -- 96
2020-03-31 00:00:00 10.4 3 Este -- -- 0 -- -- 95
2020-03-30 23:00:00 10.6 2 Este 5 Nordeste 0 -- -- 93
2020-03-30 22:00:00 11.8 4 Este 9 Este 0 -- -- 91
2020-03-30 21:00:00 13.1 5 Este 9 Este 0 -- -- 88
2020-03-30 20:00:00 15 5 Sudeste 12 Sur 0 -- -- 81
2020-03-30 19:00:00 17.3 6 Sur 18 Oeste 0 -- -- 70
2020-03-30 18:00:00 18.4 12 Sudoeste 22 Sudoeste 0 -- -- 65
2020-03-30 17:00:00 18.4 14 Sudoeste 26 Sudoeste 0 -- -- 68
2020-03-30 16:00:00 17.3 12 Sudoeste 26 Sudoeste 0 -- -- 72
2020-03-30 15:00:00 19 13 Sudoeste 27 Sudoeste 0 -- -- 67
2020-03-30 14:00:00 18.7 14 Sudoeste 27 Sudoeste 0 -- -- 68
2020-03-30 13:00:00 17.1 14 Sudoeste 26 Sudoeste 0 -- -- 73
2020-03-30 12:00:00 17 13 Sudoeste 26 Sudoeste 0 -- -- 74
2020-03-30 11:00:00 16.2 10 Sudoeste 19 Sur 0 -- -- 81
2020-03-30 10:00:00 13.4 3 Noroeste 5 Noroeste 0 -- -- 100
2020-03-30 09:00:00 9.9 0 Calma 6 Este 0 -- -- 100
2020-03-30 08:00:00 6.2 5 Este 6 Este 0 -- -- 99
2020-03-30 07:00:00 5.7 3 Nordeste 5 Este 0 -- -- 99
2020-03-30 06:00:00 5.6 3 Este 5 Este 0 -- -- 98
2020-03-30 05:00:00 6.1 3 Este 5 Este 0 -- -- 98
2020-03-30 04:00:00 6.3 4 Este 5 Este 0 -- -- 98
2020-03-30 03:00:00 6.1 3 Este 4 Este 0 -- -- 98
2020-03-30 02:00:00 6.4 3 Este 4 Este 0 -- -- 97
2020-03-30 01:00:00 7.1 3 Sudeste 4 Sudeste 0 -- -- 96
2020-03-30 00:00:00 7.5 2 Sur 4 Este 0 -- -- 94
2020-03-29 23:00:00 8.7 3 Este 4 Este 0 -- -- 93
2020-03-29 22:00:00 10 2 Este 4 Sudoeste 0 -- -- 89
2020-03-29 21:00:00 12.7 4 Sudoeste 13 Sudoeste 0 -- -- 88
2020-03-29 20:00:00 14.4 8 Sudoeste 26 Oeste 0 -- -- 81
2020-03-29 19:00:00 16.5 15 Sudoeste 27 Sudoeste 0 -- -- 70
2020-03-29 18:00:00 18.2 17 Sudoeste 26 Sudoeste 0 -- -- 59
2020-03-29 17:00:00 18.9 14 Sudoeste 27 Sudoeste 0 -- -- 55
2020-03-29 16:00:00 20.4 18 Sudoeste 31 Sudoeste 0 -- -- 43
2020-03-29 15:00:00 20.1 17 Sudoeste 27 Sudoeste 0 -- -- 42
2020-03-29 14:00:00 19.6 12 Sudoeste 24 Oeste 0 -- -- 52
2020-03-29 13:00:00 19.5 6 Sudoeste 14 Sudoeste 0 -- -- 52
2020-03-29 12:00:00 17.8 4 Oeste 9 Oeste 0 -- -- 67
2020-03-29 11:00:00 14.9 3 Oeste 6 Oeste 0 -- -- 80
2020-03-29 10:00:00 12.4 0 Calma 4 Este 0 -- -- 100
2020-03-29 09:00:00 8.6 0 Calma 3 Este 0 -- -- 100
2020-03-29 08:00:00 4.7 -- -- -- -- 0 -- -- 98
2020-03-29 07:00:00 6.3 0 Calma 4 Este 0 -- -- 98
2020-03-29 06:00:00 7.1 3 Este 4 Este 0.2 -- -- 98
2020-03-29 05:00:00 7.8 2 Este 4 Este 0 -- -- 98
2020-03-29 03:00:00 8.4 3 Este 4 Este 0 -- -- 98
2020-03-29 01:00:00 8.9 2 Este 4 Nordeste 0 -- -- 98
2020-03-29 00:00:00 8.3 2 Este 4 Este 0 -- -- 97
2020-03-28 23:00:00 8.2 3 Este 4 Este 0 -- -- 96
2020-03-28 22:00:00 9.4 0 Calma 2 Este 0 -- -- 95
2020-03-28 21:00:00 10.8 0 Calma 5 Este 0 -- -- 95
2020-03-28 20:00:00 11.6 0 Calma 6 Nordeste 0 -- -- 92
2020-03-28 19:00:00 12.7 3 Nordeste 9 Norte 0 -- -- 90
2020-03-28 18:00:00 14.1 4 Nordeste 12 Norte 0 -- -- 89
2020-03-28 17:00:00 13.4 0 Calma 10 Norte 4.2 -- -- 95
2020-03-28 16:00:00 12.7 3 Sur 12 Norte 2.8 -- -- 91
2020-03-28 15:00:00 12.9 5 Noroeste 11 Oeste 0.4 -- -- 87
2020-03-28 14:00:00 13.7 2 Sudoeste 24 Norte 0.8 -- -- 83
2020-03-28 13:00:00 18.1 6 Norte 19 Nordeste 0 -- -- 61
2020-03-28 12:00:00 16.3 8 Norte 21 Norte 0 -- -- 68
2020-03-28 11:00:00 14.1 9 Norte 19 Nordeste 0 -- -- 76
2020-03-28 10:00:00 11.4 7 Norte 21 Norte 0 -- -- 97
2020-03-28 09:00:00 8.4 2 Sudoeste 5 Noroeste 0 -- -- 99
2020-03-28 08:00:00 5.6 0 Calma 4 Norte 0 -- -- 100
2020-03-28 07:00:00 2.7 4 Este 4 Este 0 -- -- 98
2020-03-28 06:00:00 3.1 3 Este 4 Este 0 -- -- 97
2020-03-28 05:00:00 4.1 2 Nordeste 4 Este 0 -- -- 97
2020-03-28 04:00:00 5.3 3 Nordeste 5 Norte 0 -- -- 97
2020-03-28 03:00:00 4.8 3 Este 5 Nordeste 0 -- -- 96
2020-03-28 02:00:00 4.6 0 Calma 5 Norte 0 -- -- 94
2020-03-28 01:00:00 6 3 Norte 6 Norte 0 -- -- 94
2020-03-28 00:00:00 7.7 3 Nordeste 6 Norte 0 -- -- 92
2020-03-27 23:00:00 9.1 0 Calma 12 Norte 0 -- -- 93
2020-03-27 22:00:00 8.1 5 Nordeste 10 Norte 0 -- -- 94
2020-03-27 21:00:00 7.9 3 Nordeste 9 Nordeste 0 -- -- 89
2020-03-27 20:00:00 8.6 4 Nordeste 12 Nordeste 0 -- -- 82
2020-03-27 19:00:00 10.7 3 Nordeste 9 Norte 0 -- -- 66
2020-03-27 18:00:00 13.3 4 Noroeste 17 Sudoeste 0 -- -- 56
2020-03-27 17:00:00 14.7 7 Oeste 19 Sudoeste 0 -- -- 52
2020-03-27 16:00:00 15.3 6 Sudoeste 17 Norte 0 -- -- 50
2020-03-27 15:00:00 17 8 Nordeste 21 Nordeste 0 -- -- 43
2020-03-27 14:00:00 16.8 6 Nordeste 22 Nordeste 0 -- -- 42
2020-03-27 13:00:00 16.1 11 Nordeste 24 Norte 0 -- -- 47
2020-03-27 12:00:00 15.3 10 Norte 21 Nordeste 0 -- -- 57
2020-03-27 11:00:00 14.3 9 Norte 22 Nordeste 0 -- -- 59
2020-03-27 10:00:00 12.5 9 Norte 19 Norte 0 -- -- 68
2020-03-27 09:00:00 9.5 4 Nordeste 9 Nordeste 0 -- -- 97
2020-03-27 08:00:00 5.7 3 Nordeste 10 Nordeste 0 -- -- 100
2020-03-27 07:00:00 1.4 3 Nordeste 6 Norte 0 -- -- 100
2020-03-27 06:00:00 1.1 2 Nordeste 6 Nordeste 0 -- -- 99
2020-03-27 05:00:00 2.2 2 Este 8 Norte 0 -- -- 98
2020-03-27 04:00:00 2.8 3 Nordeste 5 Nordeste 0 -- -- 97
2020-03-27 03:00:00 4.5 3 Nordeste 11 Nordeste 0 -- -- 97
2020-03-27 02:00:00 5.4 4 Nordeste 9 Nordeste 0.2 -- -- 98
2020-03-27 01:00:00 7 2 Norte 18 Este 0.2 -- -- 98
2020-03-27 00:00:00 7.6 6 Nordeste 21 Nordeste 1.8 -- -- 98
2020-03-26 23:00:00 7.4 5 Norte 13 Nordeste 1.8 -- -- 98
2020-03-26 22:00:00 7.3 5 Nordeste 16 Norte 0.6 -- -- 98
2020-03-26 21:00:00 7.4 8 Norte 19 Norte 0.6 -- -- 97
2020-03-26 20:00:00 7.2 6 Norte 17 Norte 0.2 -- -- 96
2020-03-26 19:00:00 7.7 5 Norte 12 Norte 0.4 -- -- 95
2020-03-26 18:00:00 7.7 5 Nordeste 19 Norte 0.4 -- -- 94
2020-03-26 17:00:00 7.9 8 Norte 19 Norte 0.2 -- -- 94
2020-03-26 16:00:00 9.1 12 Nordeste 22 Norte 0.4 -- -- 93
2020-03-26 15:00:00 9 9 Nordeste 18 Norte 1.4 -- -- 93
2020-03-26 14:00:00 9.1 10 Nordeste 25 Nordeste 0 -- -- 89
2020-03-26 13:00:00 10.2 9 Norte 19 Este 0 -- -- 87
2020-03-26 12:00:00 7.9 17 Este 25 Este 2.8 -- -- 94
2020-03-26 11:00:00 7.9 6 Sudoeste 23 Sudoeste 1.2 -- -- 89
2020-03-26 10:00:00 10.8 6 Sudoeste 16 Sudoeste 0.2 -- -- 81
2020-03-26 09:00:00 9.7 3 Sudeste 6 Sudeste 0 -- -- 95
2020-03-26 08:00:00 7.9 3 Este 5 Este 0 -- -- 99
2020-03-26 07:00:00 4.9 4 Este 6 Este 0 -- -- 98
2020-03-26 06:00:00 4.8 2 Sudeste 6 Sudeste 0 -- -- 97
2020-03-26 05:00:00 4.6 4 Sudeste 6 Sudeste 0 -- -- 97
2020-03-26 04:00:00 4.5 0 Calma 25 Oeste 0 -- -- 97
2020-03-26 03:00:00 3.7 3 Este 7 Este 0 -- -- 97
2020-03-26 02:00:00 3.9 2 Este 5 Este 0 -- -- 97
2020-03-26 01:00:00 3.4 0 Calma 5 Este 0 -- -- 96
2020-03-26 00:00:00 2.1 3 Este 5 Este 0 -- -- 95
2020-03-25 23:00:00 1.3 2 Este 3 Este 0 -- -- 92
2020-03-25 22:00:00 2.3 3 Este 4 Este 0 -- -- 90
2020-03-25 21:00:00 3.7 2 Nordeste 4 Sudeste 0 -- -- 86
2020-03-25 20:00:00 5.8 3 Este 4 Nordeste 0 -- -- 80
2020-03-25 19:00:00 9.1 2 Este 8 Nordeste 0 -- -- 66
2020-03-25 18:00:00 11.6 4 Nordeste 18 Este 0 -- -- 50
2020-03-25 17:00:00 14.5 10 Nordeste 29 Este 0 -- -- 43
2020-03-25 16:00:00 14.2 10 Norte 31 Nordeste 0 -- -- 44
2020-03-25 15:00:00 14.2 14 Nordeste 33 Nordeste 0 -- -- 50
2020-03-25 14:00:00 13 15 Este 24 Este 0 -- -- 57
2020-03-25 13:00:00 16.1 12 Nordeste 26 Nordeste 0 -- -- 40
2020-03-25 12:00:00 15.1 8 Nordeste 23 Nordeste 0 -- -- 44
2020-03-25 11:00:00 14.8 13 Nordeste 27 Este 0 -- -- 49
2020-03-25 10:00:00 12.2 13 Norte 28 Noroeste 0 -- -- 66
2020-03-25 09:00:00 9.7 10 Norte 27 Norte 0 -- -- 77
2020-03-25 08:00:00 6.7 5 Nordeste 18 Este 0 -- -- 81
2020-03-25 07:00:00 4.3 4 Nordeste 9 Nordeste 0 -- -- 86
2020-03-25 06:00:00 4.5 5 Norte 10 Norte 0 -- -- 85
2020-03-25 05:00:00 5.6 4 Nordeste 12 Norte 0 -- -- 83
2020-03-25 04:00:00 6 4 Norte 17 Nordeste 0 -- -- 83
2020-03-25 03:00:00 6 5 Norte 10 Nordeste 0 -- -- 87
2020-03-25 02:00:00 7.7 6 Nordeste 27 Norte 0 -- -- 85
2020-03-25 01:00:00 8.5 7 Nordeste 24 Nordeste 0 -- -- 84
2020-03-25 00:00:00 9.5 6 Norte 27 Nordeste 0 -- -- 71
2020-03-24 23:00:00 10.5 13 Nordeste 28 Nordeste 0 -- -- 66
2020-03-24 22:00:00 10.7 10 Nordeste 33 Este 0 -- -- 66
2020-03-24 21:00:00 11.3 16 Nordeste 35 Nordeste 0 -- -- 64
2020-03-24 20:00:00 11.2 15 Nordeste 40 Este 0 -- -- 63
2020-03-24 19:00:00 12 19 Nordeste 41 Nordeste 0 -- -- 62
2020-03-24 18:00:00 12.9 19 Nordeste 49 Nordeste 0 -- -- 61
2020-03-24 17:00:00 13.7 22 Nordeste 46 Nordeste 0 -- -- 60
2020-03-24 16:00:00 14.2 21 Nordeste 44 Este 0 -- -- 67
2020-03-24 15:00:00 14.6 22 Nordeste 45 Este 0 -- -- 68
2020-03-24 14:00:00 14.1 18 Nordeste 44 Este 0 -- -- 75
2020-03-24 13:00:00 14.7 25 Este 44 Este 0 -- -- 72
2020-03-24 12:00:00 15.1 21 Nordeste 41 Este 0 -- -- 74
2020-03-24 11:00:00 14.2 19 Nordeste 36 Este 0 -- -- 86
2020-03-24 10:00:00 13.4 12 Nordeste 26 Este 0.4 -- -- 96
2020-03-24 09:00:00 12.3 10 Nordeste 24 Nordeste 1.8 -- -- 97
2020-03-24 08:00:00 12.3 10 Nordeste 30 Nordeste 0.8 -- -- 96
2020-03-24 07:00:00 12.6 13 Nordeste 28 Este 0.4 -- -- 95
2020-03-24 06:00:00 13 14 Este 30 Nordeste 3.8 -- -- 92
2020-03-24 05:00:00 13.7 12 Nordeste 30 Nordeste 0 -- -- 85
2020-03-24 04:00:00 13.9 14 Nordeste 29 Este 0 -- -- 84
2020-03-24 03:00:00 13.9 15 Nordeste 30 Este 0 -- -- 85
2020-03-24 02:00:00 13.6 13 Este 33 Este 0 -- -- 86
2020-03-24 01:00:00 13.8 14 Este 27 Nordeste 0 -- -- 87
2020-03-24 00:00:00 13.5 12 Nordeste 24 Nordeste 0 -- -- 86
2020-03-23 23:00:00 12.9 10 Nordeste 22 Nordeste 0 -- -- 87
2020-03-23 22:00:00 13.6 9 Nordeste 22 Este 0 -- -- 83
2020-03-23 21:00:00 13.7 14 Nordeste 23 Nordeste 0 -- -- 85
2020-03-23 20:00:00 13.3 10 Este 19 Este 0 -- -- 86
2020-03-23 19:00:00 14.5 12 Nordeste 24 Nordeste 0 -- -- 77
2020-03-23 18:00:00 16.5 13 Este 28 Este 0 -- -- 70
2020-03-23 17:00:00 17.9 15 Nordeste 31 Este 0 -- -- 65
2020-03-23 16:00:00 19.4 17 Este 29 Este 0 -- -- 62
2020-03-23 15:00:00 19.7 18 Este 31 Este 0 -- -- 61
2020-03-23 14:00:00 20.1 17 Este 30 Este 0 -- -- 61
2020-03-23 13:00:00 19.9 18 Este 30 Este 0 -- -- 60
2020-03-23 12:00:00 19.6 16 Este 28 Este 0 -- -- 58
2020-03-23 11:00:00 18.5 14 Este 24 Este 0 -- -- 67
2020-03-23 10:00:00 17.3 14 Este 22 Este 0 -- -- 77
2020-03-23 09:00:00 14.5 8 Este 15 Este 0 -- -- 99
2020-03-23 08:00:00 11.1 2 Este 4 Nordeste 0 -- -- 100
2020-03-23 07:00:00 8.1 3 Este 6 Este 0 -- -- 100
2020-03-23 06:00:00 7.4 3 Este 8 Este 0 -- -- 100
2020-03-23 05:00:00 7.9 4 Este 6 Este 0 -- -- 99
2020-03-23 04:00:00 7.6 4 Este 6 Este 0 -- -- 99
2020-03-23 03:00:00 7.9 2 Nordeste 6 Este 0 -- -- 98
2020-03-23 02:00:00 8.2 3 Nordeste 5 Este 0 -- -- 97
2020-03-23 01:00:00 8.1 3 Este 7 Nordeste 0 -- -- 97
2020-03-23 00:00:00 8.6 3 Este 5 Nordeste 0 -- -- 97
2020-03-22 23:00:00 8.7 3 Este 6 Este 0 -- -- 95
2020-03-22 22:00:00 9.1 5 Este 6 Este 0 -- -- 94
2020-03-22 21:00:00 10.2 4 Este 6 Este 0 -- -- 92
2020-03-22 20:00:00 12.3 4 Este 8 Sudeste 0 -- -- 87
2020-03-22 19:00:00 14.8 5 Sudeste 23 Sudeste 0 -- -- 84
2020-03-22 18:00:00 17.3 14 Sudeste 24 Sudeste 0 -- -- 72
2020-03-22 17:00:00 19.3 5 Sudoeste 13 Sur 0 -- -- 67
2020-03-22 16:00:00 17.9 7 Oeste 21 Oeste 0 -- -- 71
2020-03-22 15:00:00 18.7 12 Sudoeste 24 Sudoeste 0 -- -- 64
2020-03-22 14:00:00 17.4 13 Sudoeste 23 Sudoeste 0 -- -- 80
2020-03-22 13:00:00 17 9 Sudoeste 22 Sudoeste 0 -- -- 76
2020-03-22 12:00:00 16.9 16 Sudoeste 28 Sudoeste 0.6 -- -- 77
2020-03-22 11:00:00 16.5 3 Este 9 Este 0 -- -- 83
2020-03-22 10:00:00 15.4 0 Calma 8 Nordeste 0 -- -- 95
2020-03-22 09:00:00 13.6 3 Nordeste 9 Nordeste 0 -- -- 99
2020-03-22 08:00:00 12 2 Nordeste 6 Nordeste 0 -- -- 99
2020-03-22 07:00:00 10.9 0 Calma 2 Norte 0 -- -- 98
2020-03-22 06:00:00 10.9 0 Calma 5 Nordeste 0 -- -- 98
2020-03-22 05:00:00 10.5 3 Nordeste 5 Nordeste 0 -- -- 98
2020-03-22 04:00:00 10.1 3 Oeste 4 Oeste 0 -- -- 97
2020-03-22 03:00:00 10.9 2 Nordeste 4 Noroeste 0 -- -- 97
2020-03-22 02:00:00 10.5 2 Norte 5 Este 0 -- -- 97
2020-03-22 01:00:00 9.9 0 Calma 2 Sur 0 -- -- 95
2020-03-22 00:00:00 11.1 0 Calma 11 Nordeste 0 -- -- 95
2020-03-21 23:00:00 11.6 4 Nordeste 6 Nordeste 0 -- -- 95
2020-03-21 22:00:00 11.4 0 Calma 7 Nordeste 0 -- -- 92
2020-03-21 21:00:00 12.3 3 Nordeste 6 Nordeste 0 -- -- 91
2020-03-21 20:00:00 12.8 2 Nordeste 8 Nordeste 0 -- -- 84
2020-03-21 19:00:00 14.8 4 Nordeste 17 Este 0 -- -- 80
2020-03-21 18:00:00 15.8 9 Este 24 Nordeste 0 -- -- 75
2020-03-21 17:00:00 17.1 13 Este 23 Este 0 -- -- 68
2020-03-21 16:00:00 17.4 12 Este 24 Nordeste 0 -- -- 70
2020-03-21 15:00:00 17.9 14 Este 24 Este 0 -- -- 68
2020-03-21 14:00:00 17.8 13 Nordeste 30 Nordeste 0 -- -- 66
2020-03-21 13:00:00 18.5 14 Nordeste 35 Nordeste 0 -- -- 65
2020-03-21 12:00:00 19.2 18 Este 31 Este 0 -- -- 64
2020-03-21 11:00:00 18.9 18 Este 30 Este 0 -- -- 65
2020-03-21 10:00:00 17 12 Nordeste 24 Nordeste 0 -- -- 74
2020-03-21 09:00:00 15.1 8 Nordeste 17 Nordeste 0 -- -- 89
2020-03-21 08:00:00 11.7 5 Nordeste 10 Nordeste 0 -- -- 97
2020-03-21 07:00:00 10.6 3 Nordeste 6 Nordeste 0 -- -- 96
2020-03-21 06:00:00 10.4 3 Nordeste 6 Nordeste 0 -- -- 95
2020-03-21 05:00:00 10.8 3 Norte 10 Norte 0 -- -- 93
2020-03-21 04:00:00 11.3 4 Nordeste 13 Norte 0 -- -- 93
2020-03-21 03:00:00 12 5 Nordeste 14 Norte 0 -- -- 91
2020-03-21 02:00:00 12.3 5 Nordeste 11 Norte 0 -- -- 90
2020-03-21 01:00:00 12.9 3 Norte 19 Norte 0 -- -- 87
2020-03-21 00:00:00 12.9 7 Nordeste 22 Este 0 -- -- 85
2020-03-20 23:00:00 13.3 15 Este 28 Este 0 -- -- 85
2020-03-20 22:00:00 13.1 11 Nordeste 23 Este 0 -- -- 84
2020-03-20 21:00:00 13.2 8 Nordeste 23 Nordeste 0 -- -- 84
2020-03-20 20:00:00 13.1 6 Nordeste 19 Nordeste 0 -- -- 84
2020-03-20 19:00:00 14.3 13 Nordeste 26 Nordeste 0 -- -- 78
2020-03-20 18:00:00 15.2 13 Nordeste 30 Nordeste 0 -- -- 75
2020-03-20 17:00:00 16.5 12 Nordeste 33 Este 0 -- -- 71
2020-03-20 16:00:00 18.1 15 Este 31 Este 0 -- -- 64
2020-03-20 15:00:00 18.2 15 Nordeste 34 Este 0 -- -- 61
2020-03-20 14:00:00 18.8 17 Este 32 Nordeste 0 -- -- 59
2020-03-20 13:00:00 17.8 18 Este 44 Este 0 -- -- 62
2020-03-20 12:00:00 18.4 19 Este 38 Este 0 -- -- 61
2020-03-20 11:00:00 17.6 18 Este 37 Este 0 -- -- 65
2020-03-20 10:00:00 16.8 17 Este 31 Este 0 -- -- 68
2020-03-20 09:00:00 14.8 16 Este 30 Este 0 -- -- 81
2020-03-20 08:00:00 10.3 3 Nordeste 11 Nordeste 0 -- -- 99
2020-03-20 07:00:00 8.5 2 Nordeste 10 Nordeste 0 -- -- 98
2020-03-20 06:00:00 7.8 3 Nordeste 11 Nordeste 0 -- -- 99
2020-03-20 05:00:00 8 2 Nordeste 8 Nordeste 0 -- -- 97
2020-03-20 04:00:00 8.6 4 Nordeste 9 Nordeste 0 -- -- 98
2020-03-20 03:00:00 8.7 3 Nordeste 12 Nordeste 0 -- -- 98
2020-03-20 02:00:00 8.5 4 Nordeste 9 Nordeste 0 -- -- 98
2020-03-20 01:00:00 7.4 3 Nordeste 6 Nordeste 0 -- -- 97
2020-03-20 00:00:00 7.7 0 Calma 6 Norte 0 -- -- 95
2020-03-19 23:00:00 7.8 0 Calma 4 Norte 0 -- -- 93
2020-03-19 22:00:00 8.6 2 Nordeste 6 Nordeste 0 -- -- 92
2020-03-19 21:00:00 10.2 4 Nordeste 7 Norte 0 -- -- 90
2020-03-19 20:00:00 12.1 4 Este 17 Este 0 -- -- 84
2020-03-19 19:00:00 13.4 11 Este 22 Este 0 -- -- 79
2020-03-19 18:00:00 15.5 11 Este 26 Este 0 -- -- 70
2020-03-19 17:00:00 17.4 14 Este 30 Este 0 -- -- 63
2020-03-19 16:00:00 18.6 15 Este 31 Este 0 -- -- 58
2020-03-19 15:00:00 19.3 15 Este 30 Este 0 -- -- 56
2020-03-19 14:00:00 18.7 18 Este 31 Este 0 -- -- 59
2020-03-19 13:00:00 18.5 14 Este 29 Este 0 -- -- 60
2020-03-19 12:00:00 18.7 11 Este 25 Este 0 -- -- 63
2020-03-19 11:00:00 18.5 14 Este 26 Este 0 -- -- 64
2020-03-19 10:00:00 16.2 14 Este 23 Este 0 -- -- 81
2020-03-19 09:00:00 12.3 0 Calma 8 Norte 0 -- -- 100
2020-03-19 08:00:00 10 2 Nordeste 8 Nordeste 0 -- -- 99
2020-03-19 07:00:00 8.4 3 Este 8 Nordeste 0 -- -- 99
2020-03-19 06:00:00 8.8 0 Calma 10 Norte 0 -- -- 97
2020-03-19 05:00:00 9.9 3 Nordeste 10 Norte 0 -- -- 98
2020-03-19 04:00:00 10.1 3 Nordeste 10 Nordeste 0 -- -- 98
2020-03-19 03:00:00 10.5 5 Nordeste 12 Nordeste 0 -- -- 98
2020-03-19 02:00:00 10.3 3 Nordeste 7 Nordeste 0 -- -- 97
2020-03-19 01:00:00 10.5 2 Nordeste 10 Norte 0 -- -- 96
2020-03-19 00:00:00 10.7 3 Nordeste 6 Nordeste 0 -- -- 95
2020-03-18 23:00:00 11 3 Nordeste 7 Nordeste 0 -- -- 93
2020-03-18 22:00:00 11.7 3 Nordeste 7 Nordeste 0 -- -- 91
2020-03-18 21:00:00 12.9 0 Calma 6 Nordeste 0 -- -- 89
2020-03-18 20:00:00 13.7 6 Este 13 Este 0 -- -- 87
2020-03-18 19:00:00 14.4 6 Nordeste 20 Este 0 -- -- 82
2020-03-18 18:00:00 15.4 10 Nordeste 22 Nordeste 0 -- -- 76
2020-03-18 17:00:00 16.5 13 Nordeste 27 Este 0 -- -- 72
2020-03-18 16:00:00 18 13 Nordeste 26 Este 0 -- -- 66
2020-03-18 15:00:00 18.1 15 Este 28 Este 0 -- -- 66
2020-03-18 14:00:00 19.1 14 Nordeste 30 Nordeste 0 -- -- 65
2020-03-18 13:00:00 19.6 14 Nordeste 28 Este 0 -- -- 65
2020-03-18 12:00:00 17.5 13 Nordeste 29 Este 0 -- -- 74
2020-03-18 11:00:00 17 14 Este 26 Este 0 -- -- 78
2020-03-18 10:00:00 16.4 12 Nordeste 23 Este 0 -- -- 81
2020-03-18 09:00:00 14.3 6 Nordeste 13 Nordeste 0 -- -- 91
2020-03-18 08:00:00 12.4 7 Nordeste 15 Nordeste 0 -- -- 96
2020-03-18 07:00:00 11.5 6 Nordeste 16 Nordeste 0 -- -- 95
2020-03-18 06:00:00 11.7 7 Nordeste 14 Nordeste 0 -- -- 95
2020-03-18 05:00:00 11.4 6 Nordeste 15 Nordeste 0 -- -- 93
2020-03-18 04:00:00 12 7 Nordeste 14 Nordeste 0 -- -- 92
2020-03-18 03:00:00 11.8 5 Norte 13 Norte 0 -- -- 90
2020-03-18 02:00:00 12.2 5 Nordeste 14 Nordeste 0 -- -- 87
2020-03-18 01:00:00 12.9 6 Nordeste 14 Norte 0 -- -- 84
2020-03-18 00:00:00 13.9 5 Nordeste 19 Nordeste 0 -- -- 81
2020-03-17 23:00:00 14.4 11 Nordeste 29 Nordeste 0 -- -- 84
2020-03-17 22:00:00 14.8 8 Nordeste 36 Nordeste 0 -- -- 82
2020-03-17 21:00:00 14.7 18 Nordeste 39 Este 0 -- -- 82
2020-03-17 20:00:00 14.7 18 Nordeste 37 Este 0 -- -- 84
2020-03-17 19:00:00 14.9 20 Este 37 Este 0 -- -- 83
2020-03-17 18:00:00 15.5 23 Este 40 Nordeste 0 -- -- 80
2020-03-17 17:00:00 16.3 17 Este 42 Este 0 -- -- 78
2020-03-17 16:00:00 17.2 22 Este 39 Este 0 -- -- 74
2020-03-17 15:00:00 17.3 20 Nordeste 41 Este 0 -- -- 74
2020-03-17 14:00:00 17.9 22 Este 41 Este 0 -- -- 75
2020-03-17 13:00:00 17.1 16 Este 38 Este 0 -- -- 80
2020-03-17 12:00:00 16.7 23 Este 36 Este 0 -- -- 81
2020-03-17 11:00:00 16.6 18 Este 37 Este 0 -- -- 85
2020-03-17 10:00:00 16.1 18 Este 36 Este 0 -- -- 87
2020-03-17 09:00:00 15.8 15 Este 32 Este 0 -- -- 88
2020-03-17 08:00:00 15.3 15 Este 31 Este 0 -- -- 91
2020-03-17 07:00:00 15.2 14 Este 30 Este 0 -- -- 93
2020-03-17 06:00:00 15.1 13 Nordeste 27 Nordeste 0 -- -- 95
2020-03-17 05:00:00 15 8 Nordeste 26 Nordeste 0 -- -- 95
2020-03-17 04:00:00 15.1 9 Nordeste 19 Nordeste 0.2 -- -- 94
2020-03-17 03:00:00 15.4 10 Nordeste 26 Nordeste 0 -- -- 92
2020-03-17 02:00:00 15.4 11 Nordeste 21 Este 0 -- -- 93
2020-03-17 01:00:00 15.3 7 Este 22 Este 0 -- -- 93
2020-03-17 00:00:00 15.3 9 Este 30 Nordeste 0 -- -- 92
2020-03-16 23:00:00 15.2 10 Este 23 Este 0 -- -- 92
2020-03-16 22:00:00 15.4 16 Este 29 Este 0 -- -- 91
2020-03-16 21:00:00 15.5 14 Este 28 Este 0 -- -- 90
2020-03-16 20:00:00 15.6 14 Este 24 Este 0 -- -- 90
2020-03-16 19:00:00 15.9 13 Este 27 Este 0 -- -- 89
2020-03-16 18:00:00 16.6 13 Este 29 Este 0 -- -- 86
2020-03-16 17:00:00 17.3 17 Este 35 Este 0 -- -- 83
2020-03-16 16:00:00 18.4 19 Este 35 Sudeste 0 -- -- 78
2020-03-16 15:00:00 17.8 21 Este 42 Este 0 -- -- 80
2020-03-16 14:00:00 18.2 23 Este 44 Sudeste 0 -- -- 81
2020-03-16 13:00:00 17.1 27 Este 46 Este 0 -- -- 84
2020-03-16 12:00:00 16.6 18 Este 40 Este 0 -- -- 88
2020-03-16 11:00:00 16.2 22 Este 41 Este 0 -- -- 90
2020-03-16 10:00:00 15.3 18 Este 36 Sudeste 0 -- -- 94
2020-03-16 09:00:00 15.1 13 Este 36 Este 0 -- -- 95
2020-03-16 08:00:00 14.3 18 Este 38 Este 1.6 -- -- 97
2020-03-16 07:00:00 13.9 11 Este 21 Este 0 -- -- 95
2020-03-16 06:00:00 13.4 6 Este 19 Este 0 -- -- 95
2020-03-16 05:00:00 13 5 Este 21 Este 0 -- -- 98
2020-03-16 04:00:00 11.5 5 Nordeste 10 Nordeste 0 -- -- 99
2020-03-16 03:00:00 9.8 3 Noroeste 11 Nordeste 0 -- -- 98
2020-03-16 02:00:00 9.5 3 Nordeste 9 Norte 0 -- -- 98
2020-03-16 01:00:00 10.3 5 Nordeste 14 Nordeste 0 -- -- 97
2020-03-16 00:00:00 6.3 0 Calma 5 Nordeste 0 -- -- 94
2020-03-15 23:00:00 6.9 2 Nordeste 5 Norte 0 -- -- 92
2020-03-15 22:00:00 8.3 2 Norte 6 Norte 0 -- -- 91
2020-03-15 21:00:00 9.9 2 Nordeste 6 Nordeste 0 -- -- 88
2020-03-15 20:00:00 12.5 4 Este 18 Este 0 -- -- 87
2020-03-15 19:00:00 13.8 8 Este 27 Este 0 -- -- 80
2020-03-15 18:00:00 16.3 15 Este 24 Este 0 -- -- 64
2020-03-15 17:00:00 18.1 12 Este 25 Este 0 -- -- 58
2020-03-15 16:00:00 18.8 14 Este 23 Sudeste 0 -- -- 59
2020-03-15 15:00:00 19.1 9 Este 30 Este 0 -- -- 63
2020-03-15 14:00:00 18.8 12 Este 23 Sudeste 0 -- -- 63
2020-03-15 13:00:00 18.7 13 Sudeste 27 Sudeste 0 -- -- 64
2020-03-15 12:00:00 18 13 Sudeste 23 Este 0 -- -- 66
2020-03-15 11:00:00 18 11 Este 21 Sudeste 0 -- -- 70
2020-03-15 10:00:00 17.1 8 Sudeste 16 Sudeste 0 -- -- 75
2020-03-15 09:00:00 12.1 0 Calma 4 Este 0 -- -- 98
2020-03-15 08:00:00 6.5 3 Este 5 Nordeste 0 -- -- 100
2020-03-15 07:00:00 3.9 3 Nordeste 6 Nordeste 0 -- -- 97
2020-03-15 06:00:00 3.8 3 Nordeste 5 Nordeste 0 -- -- 97
2020-03-15 05:00:00 3.9 2 Nordeste 4 Nordeste 0 -- -- 96
2020-03-15 04:00:00 4.7 3 Nordeste 4 Nordeste 0 -- -- 96
2020-03-15 03:00:00 5.9 4 Este 5 Este 0 -- -- 97
2020-03-15 02:00:00 6.9 3 Este 5 Este 0 -- -- 96
2020-03-15 01:00:00 6.3 2 Este 4 Este 0 -- -- 95
2020-03-15 00:00:00 6.3 4 Este 5 Este 0 -- -- 94
2020-03-14 23:00:00 6.8 3 Este 4 Este 0 -- -- 92
2020-03-14 22:00:00 7.8 3 Este 4 Este 0 -- -- 90
2020-03-14 21:00:00 9.2 0 Calma 4 Este 0 -- -- 87
2020-03-14 20:00:00 11.5 0 Calma 8 Este 0 -- -- 79
2020-03-14 19:00:00 14.1 5 Sudeste 16 Este 0 -- -- 70
2020-03-14 18:00:00 16.5 11 Sudeste 19 Sudeste 0 -- -- 62
2020-03-14 17:00:00 18.6 12 Sudeste 21 Sudeste 0 -- -- 56
2020-03-14 16:00:00 19.9 9 Sudeste 22 Sur 0 -- -- 49
2020-03-14 15:00:00 20.4 11 Sudeste 24 Sur 0 -- -- 49
2020-03-14 14:00:00 21 8 Este 16 Este 0 -- -- 46
2020-03-14 13:00:00 20.6 6 Noroeste 15 Noroeste 0 -- -- 48
2020-03-14 12:00:00 19.7 5 Norte 17 Norte 0 -- -- 48
2020-03-14 11:00:00 18.2 8 Nordeste 18 Norte 0 -- -- 62
2020-03-14 10:00:00 16.2 10 Nordeste 20 Nordeste 0 -- -- 67
2020-03-14 09:00:00 12.6 3 Nordeste 8 Nordeste 0 -- -- 94
2020-03-14 08:00:00 9.2 4 Nordeste 6 Este 0 -- -- 98
2020-03-14 07:00:00 8.9 2 Este 8 Nordeste 0 -- -- 95
2020-03-14 06:00:00 9.8 4 Nordeste 7 Nordeste 0 -- -- 95
2020-03-14 05:00:00 10.4 3 Nordeste 15 Noroeste 0.2 -- -- 95
2020-03-14 04:00:00 10.7 4 Noroeste 13 Norte 0.4 -- -- 93
2020-03-14 03:00:00 11.1 4 Norte 10 Este 0 -- -- 88
2020-03-14 02:00:00 10.6 6 Este 10 Este 0 -- -- 91
2020-03-14 01:00:00 10.9 3 Nordeste 7 Nordeste 0 -- -- 90
2020-03-14 00:00:00 11.2 4 Nordeste 10 Norte 0 -- -- 90
2020-03-13 23:00:00 11.7 5 Nordeste 13 Nordeste 0 -- -- 89
2020-03-13 22:00:00 12 5 Nordeste 16 Nordeste 0 -- -- 89
2020-03-13 21:00:00 12.2 7 Nordeste 17 Nordeste 0 -- -- 88
2020-03-13 20:00:00 12.6 6 Nordeste 15 Norte 0 -- -- 86
2020-03-13 19:00:00 13.9 9 Nordeste 25 Nordeste 0 -- -- 81
2020-03-13 18:00:00 17.1 12 Norte 28 Nordeste 0 -- -- 68
2020-03-13 17:00:00 20.2 13 Nordeste 27 Norte 0 -- -- 51
2020-03-13 16:00:00 21.3 16 Nordeste 30 Este 0 -- -- 50
2020-03-13 15:00:00 21.7 15 Nordeste 33 Nordeste 0 -- -- 53
2020-03-13 14:00:00 21.4 14 Norte 31 Norte 0 -- -- 55
2020-03-13 13:00:00 21.7 14 Nordeste 32 Norte 0 -- -- 58
2020-03-13 12:00:00 21 15 Nordeste 34 Nordeste 0 -- -- 60
2020-03-13 11:00:00 19.9 17 Nordeste 34 Norte 0 -- -- 58
2020-03-13 10:00:00 18.3 10 Nordeste 25 Nordeste 0 -- -- 70
2020-03-13 09:00:00 15 9 Nordeste 23 Norte 0 -- -- 83
2020-03-13 08:00:00 11.7 6 Nordeste 16 Nordeste 0 -- -- 92
2020-03-13 07:00:00 10.3 8 Nordeste 19 Norte 0 -- -- 93
2020-03-13 06:00:00 10.2 8 Nordeste 17 Nordeste 0 -- -- 94
2020-03-13 05:00:00 9.1 6 Norte 15 Norte 0 -- -- 96
2020-03-13 04:00:00 7 3 Nordeste 6 Este 0 -- -- 97
2020-03-13 03:00:00 7.4 3 Este 6 Nordeste 0 -- -- 96
2020-03-13 02:00:00 7.1 3 Nordeste 6 Nordeste 0 -- -- 95
2020-03-13 01:00:00 6.9 4 Nordeste 6 Este 0 -- -- 93
2020-03-13 00:00:00 6.6 2 Nordeste 6 Nordeste 0 -- -- 92
2020-03-12 23:00:00 7.4 3 Este 5 Este 0 -- -- 90
2020-03-12 22:00:00 8.2 4 Este 5 Este 0 -- -- 89
2020-03-12 21:00:00 9 3 Este 4 Este 0 -- -- 83
2020-03-12 20:00:00 11.7 0 Calma 4 Este 0 -- -- 73
2020-03-12 19:00:00 16.1 0 Calma 9 Sur 0 -- -- 61
2020-03-12 18:00:00 19.5 5 Sur 13 Sudeste 0 -- -- 43
2020-03-12 17:00:00 21.6 9 Sudeste 17 Sudoeste 0 -- -- 38
2020-03-12 16:00:00 22.8 9 Sudeste 18 Sudeste 0 -- -- 39
2020-03-12 15:00:00 24 8 Sur 18 Sudeste 0 -- -- 35
2020-03-12 14:00:00 23.5 11 Sudeste 19 Sudeste 0 -- -- 34
2020-03-12 13:00:00 23.4 11 Sudeste 19 Sudeste 0 -- -- 33
2020-03-12 12:00:00 22.4 8 Sudeste 14 Sur 0 -- -- 40
2020-03-12 11:00:00 20.6 6 Sudeste 14 Sur 0 -- -- 51
2020-03-12 10:00:00 17.1 4 Sur 8 Sur 0 -- -- 86
2020-03-12 09:00:00 12.2 3 Norte 4 Norte 0.2 -- -- 100
2020-03-12 08:00:00 6.8 3 Este 3 Este 0 -- -- 100
2020-03-12 07:00:00 5.4 2 Norte 3 Este 0 -- -- 99
2020-03-12 06:00:00 4.8 3 Este 4 Este 0 -- -- 98
2020-03-12 05:00:00 5.5 4 Este 5 Este 0 -- -- 99
2020-03-12 04:00:00 5.8 2 Este 5 Este 0 -- -- 98
2020-03-12 03:00:00 6.8 0 Calma 4 Este 0 -- -- 98
2020-03-12 02:00:00 9.2 3 Este 5 Este 0 -- -- 98
2020-03-12 01:00:00 11.5 0 Calma 3 Este 0 -- -- 98
2020-03-12 00:00:00 11.9 0 Calma 3 Nordeste 0 -- -- 99
2020-03-11 23:00:00 11.2 0 Calma 5 Sudeste 0 -- -- 98
2020-03-11 22:00:00 10.1 3 Este 4 Este 0 -- -- 95
2020-03-11 21:00:00 10.3 2 Sudeste 4 Este 0 -- -- 91
2020-03-11 20:00:00 12.7 2 Sur 7 Sudoeste 0 -- -- 90
2020-03-11 19:00:00 15.1 4 Sudoeste 16 Oeste 0 -- -- 89
2020-03-11 18:00:00 17.2 10 Sudoeste 20 Sudoeste 0 -- -- 81
2020-03-11 17:00:00 18.1 14 Sudoeste 24 Sudoeste 0 -- -- 77
2020-03-11 16:00:00 19.4 12 Sudoeste 22 Sudoeste 0 -- -- 71
2020-03-11 15:00:00 19.8 12 Sudoeste 25 Sur 0 -- -- 70
2020-03-11 14:00:00 19.8 15 Sudoeste 25 Sudoeste 0 -- -- 70
2020-03-11 13:00:00 19.6 13 Sudoeste 21 Oeste 0 -- -- 70
2020-03-11 12:00:00 19.9 10 Oeste 19 Oeste 0 -- -- 67
2020-03-11 11:00:00 19.1 10 Sudoeste 20 Oeste 0 -- -- 71
2020-03-11 10:00:00 17.8 6 Sudoeste 13 Sur 0 -- -- 79
2020-03-11 09:00:00 14.6 3 Este 6 Este 0 -- -- 100
2020-03-11 08:00:00 7.7 3 Este 5 Este 0 -- -- 100
2020-03-11 07:00:00 5.1 4 Este 6 Este 0 -- -- 98
2020-03-11 06:00:00 5.1 4 Este 5 Este 0 -- -- 99
2020-03-11 05:00:00 5.3 3 Este 6 Este 0 -- -- 98
2020-03-11 04:00:00 5.8 4 Este 6 Este 0 -- -- 98
2020-03-11 03:00:00 6.2 4 Este 5 Este 0 -- -- 97
2020-03-11 02:00:00 6.1 0 Calma 4 Este 0 -- -- 95
2020-03-11 01:00:00 7 0 Calma 2 Sur 0 -- -- 95
2020-03-11 00:00:00 8.5 0 Calma 6 Sudoeste 0 -- -- 95
2020-03-10 23:00:00 10.2 3 Oeste 8 Sudoeste 0 -- -- 95
2020-03-10 22:00:00 9.2 6 Sudoeste 10 Sudoeste 0 -- -- 94
2020-03-10 21:00:00 10.3 0 Calma 6 Sudoeste 0 -- -- 88
2020-03-10 20:00:00 12.6 4 Oeste 18 Sudoeste 0 -- -- 84
2020-03-10 19:00:00 13.6 11 Oeste 27 Sudoeste 0 -- -- 80
2020-03-10 18:00:00 14.6 17 Sudoeste 31 Sudoeste 0 -- -- 75
2020-03-10 17:00:00 15.9 17 Sudoeste 31 Sudoeste 0 -- -- 69
2020-03-10 16:00:00 16.7 20 Sudoeste 32 Sudoeste 0 -- -- 64
2020-03-10 15:00:00 16.9 19 Sudoeste 32 Sudoeste 0 -- -- 61
2020-03-10 14:00:00 15.8 16 Sudoeste 33 Sudoeste 0 -- -- 64
2020-03-10 13:00:00 17.4 16 Sudoeste 28 Sudoeste 0 -- -- 57
2020-03-10 12:00:00 17 12 Sudoeste 21 Oeste 0 -- -- 61
2020-03-10 11:00:00 16.7 4 Norte 11 Noroeste 0 -- -- 63
2020-03-10 10:00:00 15.4 4 Nordeste 10 Norte 0 -- -- 70
2020-03-10 09:00:00 11.8 2 Este 7 Este 0 -- -- 96
2020-03-10 08:00:00 6 2 Este 6 Sudoeste 0 -- -- 100
2020-03-10 07:00:00 4.7 4 Nordeste 9 Norte 0 -- -- 98
2020-03-10 06:00:00 3.2 4 Nordeste 8 Este 0 -- -- 97
2020-03-10 05:00:00 2.8 2 Este 4 Este 0 -- -- 96
2020-03-10 04:00:00 3.7 0 Calma 5 Oeste 0 -- -- 95
2020-03-10 03:00:00 5.3 3 Sur 4 Sur 0 -- -- 96
2020-03-10 02:00:00 7.6 0 Calma 6 Norte 0 -- -- 97
2020-03-10 01:00:00 7.7 2 Nordeste -- -- 0 -- -- 98
2020-03-10 00:00:00 6.7 4 Este 6 Este 0 -- -- 97
2020-03-09 23:00:00 6.3 4 Este 5 Este 0 -- -- 94
2020-03-09 22:00:00 6.9 4 Este 5 Este 0 -- -- 92
2020-03-09 21:00:00 8.6 3 Nordeste 8 Sudeste 0 -- -- 90
2020-03-09 20:00:00 10.3 4 Sudeste 10 Sudeste 0 -- -- 87
2020-03-09 19:00:00 11.7 5 Sudeste 15 Sur 0 -- -- 81
2020-03-09 18:00:00 14 6 Sudeste 18 Sudeste 0 -- -- 73
2020-03-09 17:00:00 14.1 8 Sudeste 20 Este 0 -- -- 76
2020-03-09 16:00:00 14.5 13 Este 21 Este 0 -- -- 73
2020-03-09 15:00:00 13.8 8 Sudeste 25 Sudeste 0 -- -- 77
2020-03-09 14:00:00 16.9 8 Nordeste 23 Norte 0 -- -- 60
2020-03-09 13:00:00 19.2 7 Noroeste 17 Nordeste 0 -- -- 48
2020-03-09 12:00:00 18.1 9 Norte 25 Nordeste 0 -- -- 50
2020-03-09 11:00:00 18.2 13 Noroeste 32 Noroeste 0 -- -- 44
2020-03-09 10:00:00 15.5 4 Nordeste 13 Nordeste 0 -- -- 68
2020-03-09 09:00:00 10.7 3 Sudoeste 8 Este 0 -- -- 100
2020-03-09 08:00:00 5.4 4 Este 6 Este 0 -- -- 100
2020-03-09 07:00:00 3.9 2 Norte 4 Este 0 -- -- 97
2020-03-09 06:00:00 4.9 4 Este 6 Este 0 -- -- 98
2020-03-09 05:00:00 6 2 Este 5 Este 0 -- -- 97
2020-03-09 04:00:00 7.1 3 Este 6 Este 0 -- -- 98
2020-03-09 03:00:00 6.6 3 Este 5 Este 0 -- -- 97
2020-03-09 02:00:00 7.4 4 Este 5 Este 0 -- -- 97
2020-03-09 01:00:00 8 3 Este 5 Este 0 -- -- 97
2020-03-09 00:00:00 7.9 3 Este 4 Este 0 -- -- 97
2020-03-08 23:00:00 7.3 3 Sudeste 5 Este 0 -- -- 95
2020-03-08 22:00:00 7.1 3 Este 4 Este 0 -- -- 93
2020-03-08 21:00:00 8.5 2 Sudeste 5 Este 0 -- -- 89
2020-03-08 20:00:00 11.5 2 Sur 9 Sudoeste 0 -- -- 87
2020-03-08 19:00:00 13.5 6 Sudoeste 21 Sudoeste 0 -- -- 84
2020-03-08 18:00:00 15.9 12 Sudoeste 25 Sur 0 -- -- 72
2020-03-08 17:00:00 18.1 14 Sudoeste 33 Sudoeste 0 -- -- 50
2020-03-08 16:00:00 18.7 21 Sudoeste 32 Oeste 0 -- -- 51
2020-03-08 15:00:00 19.2 18 Sudoeste 33 Sur 0 -- -- 48
2020-03-08 14:00:00 19 18 Sudoeste 31 Sudoeste 0 -- -- 53
2020-03-08 13:00:00 18.4 17 Sudoeste 30 Sur 0 -- -- 64
2020-03-08 12:00:00 18.4 14 Sudoeste 27 Sudoeste 0 -- -- 62
2020-03-08 11:00:00 17.5 9 Sudoeste 17 Oeste 0 -- -- 62
2020-03-08 10:00:00 16 5 Oeste 11 Sudoeste 0 -- -- 66
2020-03-08 09:00:00 11.7 0 Calma 4 Este 0 -- -- 88
2020-03-08 08:00:00 5.2 0 Calma 5 Oeste 0 -- -- 96
2020-03-08 07:00:00 4.4 0 Calma 4 Este 0 -- -- 93
2020-03-08 06:00:00 6.4 2 Este 3 Sudoeste 0 -- -- 95
2020-03-08 05:00:00 7.6 0 Calma 6 Este 0 -- -- 96
2020-03-08 04:00:00 7.1 2 Nordeste 4 Este 0 -- -- 97
2020-03-08 03:00:00 6.3 2 Norte 4 Nordeste 0 -- -- 97
2020-03-08 02:00:00 5.1 2 Norte 5 Este 0 -- -- 97
2020-03-08 01:00:00 4.5 5 Este 7 Este 0 -- -- 96
2020-03-08 00:00:00 3.9 5 Este 6 Este 0 -- -- 95